Terminal Aerodrome Forecast
Issued by NWS

Home | Current Version | Previous Version | Graphics & Text | Print | Product List | Glossary On
Versions: 1 2 3 4 5 6 7 8 9 10 11 12 13 14 15 16 17 18 19 20 21
000
FTUS45 KGGW 271700
TAFGDV
TAF
KGDV 271720Z 2718/2818 17011KT P6SM SCT250
     FM280200 VRB06KT P6SM SCT015 BKN050
     FM280900 31010KT P6SM SCT015 BKN050
      AMD LTD TO CLD VIS AND WIND=

USA.gov is the U.S. government's official web portal to all federal, state and local government web resources and services.